sensor_id;sensor_type;location;lat;lon;timestamp;pressure;altitude;pressure_sealevel;temperature;humidity
40245;BME280;25963;42.694;23.600;2022-12-07T00:01:26;95202.31;;;5.78;100.00
40245;BME280;25963;42.694;23.600;2022-12-07T00:03:53;95195.56;;;5.69;100.00
40245;BME280;25963;42.694;23.600;2022-12-07T00:06:19;95201.72;;;5.61;100.00
40245;BME280;25963;42.694;23.600;2022-12-07T00:08:46;95188.56;;;5.55;100.00
40245;BME280;25963;42.694;23.600;2022-12-07T00:11:18;95196.03;;;5.58;100.00
40245;BME280;25963;42.694;23.600;2022-12-07T00:13:44;95201.34;;;5.64;100.00
40245;BME280;25963;42.694;23.600;2022-12-07T00:16:16;95189.63;;;5.60;100.00
40245;BME280;25963;42.694;23.600;2022-12-07T00:18:43;95176.97;;;5.64;100.00
40245;BME280;25963;42.694;23.600;2022-12-07T00:21:18;95189.69;;;5.67;100.00
40245;BME280;25963;42.694;23.600;2022-12-07T00:23:46;95194.50;;;5.63;100.00
40245;BME280;25963;42.694;23.600;2022-12-07T00:28:39;95188.38;;;5.56;100.00
40245;BME280;25963;42.694;23.600;2022-12-07T00:31:10;95192.94;;;5.69;100.00
40245;BME280;25963;42.694;23.600;2022-12-07T00:33:38;95190.31;;;5.69;100.00
40245;BME280;25963;42.694;23.600;2022-12-07T00:36:07;95192.72;;;5.49;100.00
40245;BME280;25963;42.694;23.600;2022-12-07T00:38:34;95188.31;;;5.49;100.00
40245;BME280;25963;42.694;23.600;2022-12-07T00:41:02;95187.53;;;5.34;100.00
40245;BME280;25963;42.694;23.600;2022-12-07T00:43:28;95198.25;;;5.39;100.00
40245;BME280;25963;42.694;23.600;2022-12-07T00:45:54;95198.41;;;5.53;100.00
40245;BME280;25963;42.694;23.600;2022-12-07T00:48:21;95202.44;;;5.55;100.00
40245;BME280;25963;42.694;23.600;2022-12-07T00:50:47;95207.25;;;5.52;100.00
40245;BME280;25963;42.694;23.600;2022-12-07T00:53:13;95195.44;;;5.41;100.00
40245;BME280;25963;42.694;23.600;2022-12-07T00:55:38;95194.81;;;5.54;100.00
40245;BME280;25963;42.694;23.600;2022-12-07T00:58:04;95190.81;;;5.58;100.00
40245;BME280;25963;42.694;23.600;2022-12-07T01:00:30;95189.31;;;5.48;100.00
40245;BME280;25963;42.694;23.600;2022-12-07T01:02:56;95179.91;;;5.54;100.00
40245;BME280;25963;42.694;23.600;2022-12-07T01:05:21;95178.34;;;5.60;100.00
40245;BME280;25963;42.694;23.600;2022-12-07T01:07:46;95179.09;;;5.54;100.00
40245;BME280;25963;42.694;23.600;2022-12-07T01:10:13;95166.63;;;5.56;100.00
40245;BME280;25963;42.694;23.600;2022-12-07T01:12:38;95169.13;;;5.64;100.00
40245;BME280;25963;42.694;23.600;2022-12-07T01:15:05;95166.13;;;5.67;100.00
40245;BME280;25963;42.694;23.600;2022-12-07T01:17:30;95164.38;;;5.74;100.00
40245;BME280;25963;42.694;23.600;2022-12-07T01:19:56;95164.91;;;5.63;100.00
40245;BME280;25963;42.694;23.600;2022-12-07T01:22:21;95160.59;;;5.55;100.00
40245;BME280;25963;42.694;23.600;2022-12-07T01:24:46;95166.78;;;5.69;100.00
40245;BME280;25963;42.694;23.600;2022-12-07T01:27:13;95166.84;;;5.76;100.00
40245;BME280;25963;42.694;23.600;2022-12-07T01:29:38;95163.53;;;5.67;100.00
40245;BME280;25963;42.694;23.600;2022-12-07T01:32:04;95156.16;;;5.56;100.00
40245;BME280;25963;42.694;23.600;2022-12-07T01:34:29;95172.13;;;5.82;100.00
40245;BME280;25963;42.694;23.600;2022-12-07T01:36:55;95170.56;;;5.66;100.00
40245;BME280;25963;42.694;23.600;2022-12-07T01:39:20;95168.81;;;5.73;100.00
40245;BME280;25963;42.694;23.600;2022-12-07T01:41:46;95172.06;;;5.76;100.00
40245;BME280;25963;42.694;23.600;2022-12-07T01:46:38;95159.91;;;5.68;100.00
40245;BME280;25963;42.694;23.600;2022-12-07T01:49:06;95163.91;;;5.64;100.00
40245;BME280;25963;42.694;23.600;2022-12-07T01:51:34;95160.78;;;5.75;100.00
40245;BME280;25963;42.694;23.600;2022-12-07T01:54:00;95161.72;;;5.67;100.00
40245;BME280;25963;42.694;23.600;2022-12-07T01:56:27;95159.91;;;5.68;100.00
40245;BME280;25963;42.694;23.600;2022-12-07T01:58:56;95155.28;;;5.70;100.00
40245;BME280;25963;42.694;23.600;2022-12-07T02:01:22;95156.31;;;5.69;100.00
40245;BME280;25963;42.694;23.600;2022-12-07T02:03:48;95154.13;;;5.72;100.00
40245;BME280;25963;42.694;23.600;2022-12-07T02:06:17;95153.53;;;5.77;100.00
40245;BME280;25963;42.694;23.600;2022-12-07T02:08:44;95150.38;;;5.82;100.00
40245;BME280;25963;42.694;23.600;2022-12-07T02:11:10;95152.78;;;5.62;100.00
40245;BME280;25963;42.694;23.600;2022-12-07T02:13:38;95139.91;;;5.60;100.00
40245;BME280;25963;42.694;23.600;2022-12-07T02:24:23;95141.94;;;5.43;100.00
40245;BME280;25963;42.694;23.600;2022-12-07T02:29:58;95140.09;;;5.59;100.00
40245;BME280;25963;42.694;23.600;2022-12-07T02:35:02;95125.13;;;5.74;100.00
40245;BME280;25963;42.694;23.600;2022-12-07T02:42:57;95127.50;;;5.69;100.00
40245;BME280;25963;42.694;23.600;2022-12-07T02:45:25;95127.69;;;5.67;100.00
40245;BME280;25963;42.694;23.600;2022-12-07T02:47:55;95132.75;;;5.69;100.00
40245;BME280;25963;42.694;23.600;2022-12-07T02:50:24;95136.22;;;5.76;100.00
40245;BME280;25963;42.694;23.600;2022-12-07T02:52:49;95123.72;;;5.71;100.00
40245;BME280;25963;42.694;23.600;2022-12-07T02:55:18;95118.91;;;5.75;100.00
40245;BME280;25963;42.694;23.600;2022-12-07T02:58:06;95128.50;;;5.68;100.00
40245;BME280;25963;42.694;23.600;2022-12-07T03:00:44;95130.00;;;5.56;100.00
40245;BME280;25963;42.694;23.600;2022-12-07T03:03:15;95123.91;;;5.48;100.00
40245;BME280;25963;42.694;23.600;2022-12-07T03:05:56;95130.00;;;5.56;100.00
40245;BME280;25963;42.694;23.600;2022-12-07T03:11:16;95130.00;;;5.56;100.00
40245;BME280;25963;42.694;23.600;2022-12-07T03:13:58;95134.34;;;5.70;100.00
40245;BME280;25963;42.694;23.600;2022-12-07T03:16:29;95134.19;;;5.71;100.00
40245;BME280;25963;42.694;23.600;2022-12-07T03:19:02;95134.41;;;5.55;100.00
40245;BME280;25963;42.694;23.600;2022-12-07T03:21:36;95118.59;;;5.42;100.00
40245;BME280;25963;42.694;23.600;2022-12-07T03:24:08;95126.28;;;5.29;100.00
40245;BME280;25963;42.694;23.600;2022-12-07T03:26:38;95120.38;;;5.41;100.00
40245;BME280;25963;42.694;23.600;2022-12-07T03:29:09;95119.78;;;5.39;100.00
40245;BME280;25963;42.694;23.600;2022-12-07T03:31:42;95113.25;;;5.14;100.00
40245;BME280;25963;42.694;23.600;2022-12-07T03:36:45;95117.72;;;4.98;100.00
40245;BME280;25963;42.694;23.600;2022-12-07T03:41:46;95118.69;;;5.12;100.00
40245;BME280;25963;42.694;23.600;2022-12-07T03:44:14;95119.50;;;5.13;100.00
40245;BME280;25963;42.694;23.600;2022-12-07T03:46:44;95115.13;;;5.20;100.00
40245;BME280;25963;42.694;23.600;2022-12-07T03:49:32;95120.59;;;5.03;100.00
40245;BME280;25963;42.694;23.600;2022-12-07T03:54:39;95110.88;;;4.97;100.00
40245;BME280;25963;42.694;23.600;2022-12-07T03:57:06;95112.56;;;5.05;100.00
40245;BME280;25963;42.694;23.600;2022-12-07T03:59:33;95110.78;;;5.06;100.00
40245;BME280;25963;42.694;23.600;2022-12-07T04:02:03;95118.09;;;4.95;100.00
40245;BME280;25963;42.694;23.600;2022-12-07T04:04:29;95115.47;;;4.95;100.00
40245;BME280;25963;42.694;23.600;2022-12-07T04:06:54;95109.38;;;4.88;100.00
40245;BME280;25963;42.694;23.600;2022-12-07T04:09:20;95112.41;;;4.92;100.00
40245;BME280;25963;42.694;23.600;2022-12-07T04:11:45;95117.09;;;4.96;100.00
40245;BME280;25963;42.694;23.600;2022-12-07T04:14:11;95111.41;;;4.93;100.00
40245;BME280;25963;42.694;23.600;2022-12-07T04:16:51;95115.09;;;4.98;100.00
40245;BME280;25963;42.694;23.600;2022-12-07T04:19:18;95113.41;;;5.06;100.00
40245;BME280;25963;42.694;23.600;2022-12-07T04:21:44;95112.66;;;5.12;100.00
40245;BME280;25963;42.694;23.600;2022-12-07T04:24:12;95114.44;;;5.11;100.00
40245;BME280;25963;42.694;23.600;2022-12-07T04:26:37;95107.97;;;5.07;100.00
40245;BME280;25963;42.694;23.600;2022-12-07T04:29:03;95099.34;;;4.92;100.00
40245;BME280;25963;42.694;23.600;2022-12-07T04:31:28;95100.88;;;4.86;100.00
40245;BME280;25963;42.694;23.600;2022-12-07T04:33:54;95105.41;;;4.77;100.00
40245;BME280;25963;42.694;23.600;2022-12-07T04:36:19;95105.13;;;4.72;100.00
40245;BME280;25963;42.694;23.600;2022-12-07T04:38:46;95109.47;;;4.80;100.00
40245;BME280;25963;42.694;23.600;2022-12-07T04:41:12;95109.81;;;4.77;100.00
40245;BME280;25963;42.694;23.600;2022-12-07T04:43:37;95116.25;;;4.60;100.00
40245;BME280;25963;42.694;23.600;2022-12-07T04:46:03;95096.50;;;4.57;100.00
40245;BME280;25963;42.694;23.600;2022-12-07T04:48:28;95107.16;;;4.55;100.00
40245;BME280;25963;42.694;23.600;2022-12-07T04:50:54;95114.72;;;4.65;100.00
40245;BME280;25963;42.694;23.600;2022-12-07T04:53:20;95113.69;;;4.66;100.00
40245;BME280;25963;42.694;23.600;2022-12-07T04:55:46;95113.81;;;4.43;100.00
40245;BME280;25963;42.694;23.600;2022-12-07T04:58:13;95111.56;;;4.40;100.00
40245;BME280;25963;42.694;23.600;2022-12-07T05:00:38;95122.38;;;4.52;100.00
40245;BME280;25963;42.694;23.600;2022-12-07T05:03:04;95116.16;;;4.38;100.00
40245;BME280;25963;42.694;23.600;2022-12-07T05:05:30;95121.28;;;4.31;100.00
40245;BME280;25963;42.694;23.600;2022-12-07T05:07:55;95127.69;;;4.29;100.00
40245;BME280;25963;42.694;23.600;2022-12-07T05:10:21;95124.25;;;4.28;100.00
40245;BME280;25963;42.694;23.600;2022-12-07T05:12:46;95119.19;;;4.27;100.00
40245;BME280;25963;42.694;23.600;2022-12-07T05:15:13;95119.56;;;4.24;100.00
40245;BME280;25963;42.694;23.600;2022-12-07T05:17:38;95127.75;;;4.21;100.00
40245;BME280;25963;42.694;23.600;2022-12-07T05:20:05;95124.66;;;4.02;100.00
40245;BME280;25963;42.694;23.600;2022-12-07T05:22:30;95111.53;;;3.96;100.00
40245;BME280;25963;42.694;23.600;2022-12-07T05:24:56;95122.34;;;4.07;100.00
40245;BME280;25963;42.694;23.600;2022-12-07T05:27:21;95106.09;;;3.97;100.00
40245;BME280;25963;42.694;23.600;2022-12-07T05:29:47;95110.91;;;4.08;100.00
40245;BME280;25963;42.694;23.600;2022-12-07T05:32:12;95121.72;;;4.05;100.00
40245;BME280;25963;42.694;23.600;2022-12-07T05:34:37;95126.28;;;4.03;100.00
40245;BME280;25963;42.694;23.600;2022-12-07T05:37:03;95126.56;;;4.08;100.00
40245;BME280;25963;42.694;23.600;2022-12-07T05:39:29;95122.34;;;4.07;100.00
40245;BME280;25963;42.694;23.600;2022-12-07T05:41:54;95124.75;;;4.09;100.00
40245;BME280;25963;42.694;23.600;2022-12-07T05:44:45;95124.25;;;4.14;100.00
40245;BME280;25963;42.694;23.600;2022-12-07T05:47:12;95122.59;;;4.12;100.00
40245;BME280;25963;42.694;23.600;2022-12-07T05:49:38;95121.97;;;3.96;100.00
40245;BME280;25963;42.694;23.600;2022-12-07T05:52:04;95119.34;;;3.96;100.00
40245;BME280;25963;42.694;23.600;2022-12-07T05:54:29;95115.28;;;3.93;100.00
40245;BME280;25963;42.694;23.600;2022-12-07T05:56:55;95102.22;;;3.78;100.00
40245;BME280;25963;42.694;23.600;2022-12-07T05:59:21;95113.16;;;3.74;100.00
40245;BME280;25963;42.694;23.600;2022-12-07T06:02:00;95128.47;;;3.77;100.00
40245;BME280;25963;42.694;23.600;2022-12-07T06:04:28;95124.19;;;3.84;100.00
40245;BME280;25963;42.694;23.600;2022-12-07T06:06:55;95111.34;;;3.97;100.00
40245;BME280;25963;42.694;23.600;2022-12-07T06:09:21;95105.31;;;3.97;100.00
40245;BME280;25963;42.694;23.600;2022-12-07T06:11:47;95113.81;;;4.14;100.00
40245;BME280;25963;42.694;23.600;2022-12-07T06:14:31;95107.66;;;4.21;100.00
40245;BME280;25963;42.694;23.600;2022-12-07T06:16:57;95123.97;;;4.23;100.00
40245;BME280;25963;42.694;23.600;2022-12-07T06:19:23;95123.34;;;4.21;100.00
40245;BME280;25963;42.694;23.600;2022-12-07T06:21:48;95116.22;;;4.30;100.00
40245;BME280;25963;42.694;23.600;2022-12-07T06:24:15;95101.13;;;4.25;100.00
40245;BME280;25963;42.694;23.600;2022-12-07T06:26:41;95114.91;;;4.34;100.00
40245;BME280;25963;42.694;23.600;2022-12-07T06:29:09;95114.19;;;4.40;100.00
40245;BME280;25963;42.694;23.600;2022-12-07T06:31:36;95110.41;;;4.28;100.00
40245;BME280;25963;42.694;23.600;2022-12-07T06:34:04;95117.03;;;4.45;100.00
40245;BME280;25963;42.694;23.600;2022-12-07T06:36:30;95121.47;;;4.30;100.00
40245;BME280;25963;42.694;23.600;2022-12-07T06:38:56;95117.03;;;4.45;100.00
40245;BME280;25963;42.694;23.600;2022-12-07T06:41:22;95120.81;;;4.57;100.00
40245;BME280;25963;42.694;23.600;2022-12-07T06:43:47;95124.50;;;4.63;100.00
40245;BME280;25963;42.694;23.600;2022-12-07T06:46:14;95129.66;;;4.56;100.00
40245;BME280;25963;42.694;23.600;2022-12-07T06:48:40;95120.28;;;4.47;100.00
40245;BME280;25963;42.694;23.600;2022-12-07T06:51:06;95118.69;;;4.61;100.00
40245;BME280;25963;42.694;23.600;2022-12-07T06:53:31;95104.91;;;4.67;100.00
40245;BME280;25963;42.694;23.600;2022-12-07T06:55:57;95116.56;;;4.86;100.00
40245;BME280;25963;42.694;23.600;2022-12-07T06:58:22;95128.97;;;4.99;100.00
40245;BME280;25963;42.694;23.600;2022-12-07T07:00:48;95136.00;;;5.13;100.00
40245;BME280;25963;42.694;23.600;2022-12-07T07:03:14;95136.22;;;5.33;100.00
40245;BME280;25963;42.694;23.600;2022-12-07T07:05:40;95132.81;;;5.33;100.00
40245;BME280;25963;42.694;23.600;2022-12-07T07:08:06;95136.22;;;5.33;100.00
40245;BME280;25963;42.694;23.600;2022-12-07T07:10:35;95131.84;;;5.40;100.00
40245;BME280;25963;42.694;23.600;2022-12-07T07:13:01;95126.63;;;5.40;100.00
40245;BME280;25963;42.694;23.600;2022-12-07T07:15:26;95125.13;;;5.53;100.00
40245;BME280;25963;42.694;23.600;2022-12-07T07:17:52;95126.94;;;5.52;100.00
40245;BME280;25963;42.694;23.600;2022-12-07T07:20:18;95132.66;;;5.62;100.00
40245;BME280;25963;42.694;23.600;2022-12-07T07:22:43;95130.13;;;5.69;100.00
40245;BME280;25963;42.694;23.600;2022-12-07T07:25:09;95114.91;;;5.79;100.00
40245;BME280;25963;42.694;23.600;2022-12-07T07:27:34;95119.13;;;5.80;100.00
40245;BME280;25963;42.694;23.600;2022-12-07T07:29:59;95126.69;;;5.90;100.00
40245;BME280;25963;42.694;23.600;2022-12-07T07:32:25;95129.38;;;5.97;100.00
40245;BME280;25963;42.694;23.600;2022-12-07T07:34:50;95130.19;;;5.97;100.00
40245;BME280;25963;42.694;23.600;2022-12-07T07:37:16;95127.81;;;6.02;100.00
40245;BME280;25963;42.694;23.600;2022-12-07T07:39:41;95134.59;;;6.18;100.00
40245;BME280;25963;42.694;23.600;2022-12-07T07:42:07;95142.16;;;6.34;100.00
40245;BME280;25963;42.694;23.600;2022-12-07T07:44:33;95134.91;;;6.36;100.00
40245;BME280;25963;42.694;23.600;2022-12-07T07:46:59;95129.34;;;6.46;100.00
40245;BME280;25963;42.694;23.600;2022-12-07T07:49:25;95125.28;;;6.44;100.00
40245;BME280;25963;42.694;23.600;2022-12-07T07:51:50;95124.66;;;6.42;100.00
40245;BME280;25963;42.694;23.600;2022-12-07T07:54:16;95127.59;;;6.60;100.00
40245;BME280;25963;42.694;23.600;2022-12-07T07:56:41;95132.72;;;6.75;100.00
40245;BME280;25963;42.694;23.600;2022-12-07T07:59:07;95139.25;;;6.85;100.00
40245;BME280;25963;42.694;23.600;2022-12-07T08:01:33;95128.56;;;6.94;100.00
40245;BME280;25963;42.694;23.600;2022-12-07T08:03:59;95123.78;;;7.04;100.00
40245;BME280;25963;42.694;23.600;2022-12-07T08:06:24;95115.13;;;7.10;100.00
40245;BME280;25963;42.694;23.600;2022-12-07T08:08:50;95122.44;;;7.21;100.00
40245;BME280;25963;42.694;23.600;2022-12-07T08:11:15;95111.59;;;6.83;100.00
40245;BME280;25963;42.694;23.600;2022-12-07T08:13:40;95120.75;;;7.07;100.00
40245;BME280;25963;42.694;23.600;2022-12-07T08:16:08;95122.97;;;7.03;100.00
40245;BME280;25963;42.694;23.600;2022-12-07T08:18:39;95125.06;;;7.21;100.00
40245;BME280;25963;42.694;23.600;2022-12-07T08:21:06;95118.00;;;7.28;100.00
40245;BME280;25963;42.694;23.600;2022-12-07T08:23:32;95124.75;;;7.51;100.00
40245;BME280;25963;42.694;23.600;2022-12-07T08:26:03;95118.69;;;7.70;100.00
40245;BME280;25963;42.694;23.600;2022-12-07T08:28:29;95120.50;;;7.63;100.00
40245;BME280;25963;42.694;23.600;2022-12-07T08:31:06;95119.50;;;7.77;100.00
40245;BME280;25963;42.694;23.600;2022-12-07T08:33:34;95119.13;;;8.00;100.00
40245;BME280;25963;42.694;23.600;2022-12-07T08:36:08;95118.91;;;8.15;100.00
40245;BME280;25963;42.694;23.600;2022-12-07T08:38:35;95131.63;;;8.25;100.00
40245;BME280;25963;42.694;23.600;2022-12-07T08:41:01;95127.59;;;8.16;100.00
40245;BME280;25963;42.694;23.600;2022-12-07T08:43:27;95125.59;;;8.24;100.00
40245;BME280;25963;42.694;23.600;2022-12-07T08:46:19;95104.97;;;8.48;100.00
40245;BME280;25963;42.694;23.600;2022-12-07T08:48:50;95111.41;;;8.65;100.00
40245;BME280;25963;42.694;23.600;2022-12-07T08:51:16;95106.50;;;8.76;100.00
40245;BME280;25963;42.694;23.600;2022-12-07T08:53:42;95114.94;;;8.91;100.00
40245;BME280;25963;42.694;23.600;2022-12-07T08:56:09;95113.25;;;9.17;100.00
40245;BME280;25963;42.694;23.600;2022-12-07T08:58:35;95105.31;;;9.23;100.00
40245;BME280;25963;42.694;23.600;2022-12-07T09:01:02;95094.88;;;9.42;100.00
40245;BME280;25963;42.694;23.600;2022-12-07T09:03:28;95101.66;;;9.63;100.00
40245;BME280;25963;42.694;23.600;2022-12-07T09:05:53;95101.97;;;9.41;100.00
40245;BME280;25963;42.694;23.600;2022-12-07T09:08:20;95081.97;;;9.65;100.00
40245;BME280;25963;42.694;23.600;2022-12-07T09:10:46;95089.09;;;9.65;100.00
40245;BME280;25963;42.694;23.600;2022-12-07T09:13:13;95081.47;;;9.11;100.00
40245;BME280;25963;42.694;23.600;2022-12-07T09:15:38;95082.66;;;8.77;100.00
40245;BME280;25963;42.694;23.600;2022-12-07T09:18:03;95079.28;;;9.08;100.00
40245;BME280;25963;42.694;23.600;2022-12-07T09:20:29;95085.25;;;9.29;100.00
40245;BME280;25963;42.694;23.600;2022-12-07T09:22:54;95072.31;;;9.21;100.00
40245;BME280;25963;42.694;23.600;2022-12-07T09:25:20;95066.22;;;9.27;100.00
40245;BME280;25963;42.694;23.600;2022-12-07T09:27:45;95062.88;;;9.13;100.00
40245;BME280;25963;42.694;23.600;2022-12-07T09:30:11;95060.28;;;9.38;100.00
40245;BME280;25963;42.694;23.600;2022-12-07T09:32:37;95059.75;;;9.86;100.00
40245;BME280;25963;42.694;23.600;2022-12-07T09:35:02;95070.66;;;10.15;100.00
40245;BME280;25963;42.694;23.600;2022-12-07T09:37:28;95063.00;;;10.32;100.00
40245;BME280;25963;42.694;23.600;2022-12-07T09:39:53;95070.63;;;9.96;100.00
40245;BME280;25963;42.694;23.600;2022-12-07T09:42:47;95063.63;;;10.09;100.00
40245;BME280;25963;42.694;23.600;2022-12-07T09:45:16;95051.47;;;10.26;100.00
40245;BME280;25963;42.694;23.600;2022-12-07T09:47:44;95042.84;;;10.19;100.00
40245;BME280;25963;42.694;23.600;2022-12-07T09:50:16;95044.28;;;9.96;100.00
40245;BME280;25963;42.694;23.600;2022-12-07T09:52:44;95043.88;;;9.93;100.00
40245;BME280;25963;42.694;23.600;2022-12-07T09:55:33;95045.13;;;9.90;100.00
40245;BME280;25963;42.694;23.600;2022-12-07T09:58:02;95041.09;;;9.88;100.00
40245;BME280;25963;42.694;23.600;2022-12-07T10:00:29;95029.72;;;10.12;100.00
40245;BME280;25963;42.694;23.600;2022-12-07T10:02:59;95034.50;;;10.22;100.00
40245;BME280;25963;42.694;23.600;2022-12-07T10:05:37;95030.81;;;10.23;100.00
40245;BME280;25963;42.694;23.600;2022-12-07T10:08:04;95029.56;;;10.32;100.00
40245;BME280;25963;42.694;23.600;2022-12-07T10:10:31;95014.19;;;10.29;100.00
40245;BME280;25963;42.694;23.600;2022-12-07T10:13:03;95022.66;;;10.49;100.00
40245;BME280;25963;42.694;23.600;2022-12-07T10:18:26;95012.88;;;10.57;100.00
40245;BME280;25963;42.694;23.600;2022-12-07T10:21:11;95009.13;;;10.64;100.00
40245;BME280;25963;42.694;23.600;2022-12-07T10:23:39;95008.59;;;10.56;100.00
40245;BME280;25963;42.694;23.600;2022-12-07T10:26:31;95006.84;;;10.49;100.00
40245;BME280;25963;42.694;23.600;2022-12-07T10:29:03;95004.59;;;10.71;100.00
40245;BME280;25963;42.694;23.600;2022-12-07T10:31:39;95000.31;;;10.89;100.00
40245;BME280;25963;42.694;23.600;2022-12-07T10:45:06;94970.28;;;11.43;97.79
40245;BME280;25963;42.694;23.600;2022-12-07T10:47:42;94960.56;;;11.79;95.26
40245;BME280;25963;42.694;23.600;2022-12-07T10:56:34;94961.38;;;12.39;91.45
40245;BME280;25963;42.694;23.600;2022-12-07T10:59:39;94966.88;;;12.25;92.56
40245;BME280;25963;42.694;23.600;2022-12-07T11:02:35;94965.88;;;12.15;92.02
40245;BME280;25963;42.694;23.600;2022-12-07T11:07:45;94963.44;;;12.13;93.51
40245;BME280;25963;42.694;23.600;2022-12-07T11:10:24;94958.88;;;11.97;92.82
40245;BME280;25963;42.694;23.600;2022-12-07T11:12:59;94958.28;;;12.06;92.52
40245;BME280;25963;42.694;23.600;2022-12-07T11:18:24;94944.00;;;12.31;93.01
40245;BME280;25963;42.694;23.600;2022-12-07T11:21:07;94940.91;;;12.22;93.44
40245;BME280;25963;42.694;23.600;2022-12-07T11:24:05;94926.88;;;12.33;92.09
40245;BME280;25963;42.694;23.600;2022-12-07T11:33:08;94919.03;;;12.67;93.83
40245;BME280;25963;42.694;23.600;2022-12-07T11:41:06;94911.78;;;12.74;87.82
40245;BME280;25963;42.694;23.600;2022-12-07T11:43:46;94902.94;;;12.69;89.99
40245;BME280;25963;42.694;23.600;2022-12-07T11:46:17;94890.44;;;12.52;90.04
40245;BME280;25963;42.694;23.600;2022-12-07T11:51:22;94880.88;;;13.09;90.58
40245;BME280;25963;42.694;23.600;2022-12-07T11:53:49;94880.25;;;12.73;90.15
40245;BME280;25963;42.694;23.600;2022-12-07T11:56:21;94871.09;;;12.92;89.56
40245;BME280;25963;42.694;23.600;2022-12-07T12:03:42;94871.53;;;13.35;91.42
40245;BME280;25963;42.694;23.600;2022-12-07T12:06:10;94877.34;;;13.20;88.97
40245;BME280;25963;42.694;23.600;2022-12-07T12:08:40;94871.94;;;13.27;90.73
40245;BME280;25963;42.694;23.600;2022-12-07T12:14:08;94876.22;;;13.16;89.24
40245;BME280;25963;42.694;23.600;2022-12-07T12:19:40;94859.19;;;12.95;90.97
40245;BME280;25963;42.694;23.600;2022-12-07T12:22:17;94857.22;;;13.02;89.30
40245;BME280;25963;42.694;23.600;2022-12-07T12:24:45;94851.34;;;13.00;91.71
40245;BME280;25963;42.694;23.600;2022-12-07T12:27:32;94849.91;;;12.92;91.93
40245;BME280;25963;42.694;23.600;2022-12-07T12:30:02;94841.06;;;12.87;93.55
40245;BME280;25963;42.694;23.600;2022-12-07T12:32:40;94845.47;;;12.52;92.65
40245;BME280;25963;42.694;23.600;2022-12-07T12:35:29;94841.41;;;12.62;94.36
40245;BME280;25963;42.694;23.600;2022-12-07T12:38:34;94841.34;;;12.73;94.28
40245;BME280;25963;42.694;23.600;2022-12-07T12:50:21;94837.16;;;13.23;91.74
40245;BME280;25963;42.694;23.600;2022-12-07T12:55:20;94835.16;;;13.30;91.05
40245;BME280;25963;42.694;23.600;2022-12-07T13:00:47;94830.34;;;13.27;91.20
40245;BME280;25963;42.694;23.600;2022-12-07T13:03:29;94829.28;;;13.28;89.64
40245;BME280;25963;42.694;23.600;2022-12-07T13:08:42;94830.78;;;13.24;91.30
40245;BME280;25963;42.694;23.600;2022-12-07T13:11:30;94826.19;;;13.31;91.68
40245;BME280;25963;42.694;23.600;2022-12-07T13:16:59;94826.91;;;13.27;92.59
40245;BME280;25963;42.694;23.600;2022-12-07T13:25:05;94833.19;;;12.92;90.61
40245;BME280;25963;42.694;23.600;2022-12-07T13:27:33;94833.78;;;12.65;91.63
40245;BME280;25963;42.694;23.600;2022-12-07T13:30:00;94823.47;;;12.64;92.66
40245;BME280;25963;42.694;23.600;2022-12-07T13:32:28;94821.88;;;12.34;93.49
40245;BME280;25963;42.694;23.600;2022-12-07T13:34:53;94817.38;;;12.34;94.74
40245;BME280;25963;42.694;23.600;2022-12-07T13:37:30;94813.78;;;12.41;95.13
40245;BME280;25963;42.694;23.600;2022-12-07T13:39:59;94822.34;;;12.31;98.22
40245;BME280;25963;42.694;23.600;2022-12-07T13:42:27;94824.22;;;12.19;99.48
40245;BME280;25963;42.694;23.600;2022-12-07T13:44:53;94818.94;;;12.19;98.91
40245;BME280;25963;42.694;23.600;2022-12-07T13:47:35;94812.44;;;11.98;99.90
40245;BME280;25963;42.694;23.600;2022-12-07T13:50:25;94820.38;;;11.98;100.00
40245;BME280;25963;42.694;23.600;2022-12-07T13:52:54;94825.44;;;11.87;100.00
40245;BME280;25963;42.694;23.600;2022-12-07T13:55:20;94826.75;;;11.85;100.00
40245;BME280;25963;42.694;23.600;2022-12-07T13:57:49;94832.00;;;11.73;100.00
40245;BME280;25963;42.694;23.600;2022-12-07T14:00:20;94822.94;;;11.57;100.00
40245;BME280;25963;42.694;23.600;2022-12-07T14:02:58;94821.22;;;11.51;100.00
40245;BME280;25963;42.694;23.600;2022-12-07T14:08:04;94824.19;;;10.84;100.00
40245;BME280;25963;42.694;23.600;2022-12-07T14:10:35;94828.47;;;10.55;100.00
40245;BME280;25963;42.694;23.600;2022-12-07T14:13:03;94826.41;;;10.57;100.00
40245;BME280;25963;42.694;23.600;2022-12-07T14:15:50;94835.50;;;10.73;100.00
40245;BME280;25963;42.694;23.600;2022-12-07T14:18:45;94844.31;;;10.67;100.00
40245;BME280;25963;42.694;23.600;2022-12-07T14:21:20;94843.88;;;10.70;100.00
40245;BME280;25963;42.694;23.600;2022-12-07T14:26:35;94842.50;;;10.79;100.00
40245;BME280;25963;42.694;23.600;2022-12-07T14:31:52;94840.25;;;10.94;100.00
40245;BME280;25963;42.694;23.600;2022-12-07T14:34:22;94826.97;;;11.01;100.00
40245;BME280;25963;42.694;23.600;2022-12-07T14:36:47;94837.78;;;10.69;100.00
40245;BME280;25963;42.694;23.600;2022-12-07T14:39:13;94841.09;;;10.65;100.00
40245;BME280;25963;42.694;23.600;2022-12-07T14:41:38;94834.94;;;10.41;100.00
40245;BME280;25963;42.694;23.600;2022-12-07T14:44:17;94839.41;;;10.40;100.00
40245;BME280;25963;42.694;23.600;2022-12-07T14:46:43;94841.72;;;10.18;100.00
40245;BME280;25963;42.694;23.600;2022-12-07T14:49:08;94841.38;;;9.96;100.00
40245;BME280;25963;42.694;23.600;2022-12-07T14:51:36;94839.25;;;9.87;100.00
40245;BME280;25963;42.694;23.600;2022-12-07T14:54:04;94835.00;;;9.67;100.00
40245;BME280;25963;42.694;23.600;2022-12-07T14:56:30;94832.06;;;9.57;100.00
40245;BME280;25963;42.694;23.600;2022-12-07T14:58:55;94847.63;;;9.22;100.00